Agua Fria, New Mexico
Current Conditions -  °F | °C
As of 8:53 PM on Thursday 18 Dec 2014 (Local Time) from KSAF Reporting Station
Clear Clear  
Wind Chill: 25°   Ceiling: Unl
Heat Index: 30°   Visibility: 10mi
Dew Point: 25°   Wind: 5mph
Humidity: 82%   Direction: 350°N
Pressure: 30.1"   Gusts: NA
Location:  35.7017°N, 105.921°W
Report Text: KSAF 190353Z AUTO 35004KT 10SM CLR M01/M04 A3010 RMK AO2 SLP195 T10111039
Loading
Personal Weather Stations






























Interactive Weather Map New forecast layout! Learn more

10-Day Weather Forecast

Advertisements
Track Severe Weather on mobile